createdAt,value
2018-10-05T00:00:10.505Z,10.40
2018-10-05T00:02:37.645Z,10.34
2018-10-05T00:05:04.869Z,10.26
2018-10-05T00:07:31.996Z,10.17
2018-10-05T00:09:59.152Z,10.09
2018-10-05T00:12:26.332Z,10.06
2018-10-05T00:14:53.499Z,10.01
2018-10-05T00:17:20.649Z,9.93
2018-10-05T00:19:48.137Z,9.88
2018-10-05T00:22:15.275Z,9.82
2018-10-05T00:24:42.424Z,9.73
2018-10-05T00:27:09.760Z,9.72
2018-10-05T00:29:36.873Z,9.69
2018-10-05T00:32:04.010Z,9.74
2018-10-05T00:34:31.180Z,9.67
2018-10-05T00:36:58.304Z,9.65
2018-10-05T00:39:25.476Z,9.63
2018-10-05T00:41:52.645Z,9.64
2018-10-05T00:44:19.841Z,9.71
2018-10-05T00:46:46.977Z,9.75
2018-10-05T00:49:14.187Z,9.85
2018-10-05T00:51:41.341Z,10.00
2018-10-05T00:54:08.484Z,10.10
2018-10-05T00:56:35.660Z,10.11
2018-10-05T00:59:02.767Z,10.12
2018-10-05T01:01:29.910Z,10.18
2018-10-05T01:03:57.104Z,10.29
2018-10-05T01:06:24.233Z,10.29
2018-10-05T01:08:51.401Z,10.37
2018-10-05T01:11:18.682Z,10.38
2018-10-05T01:13:45.837Z,10.44
2018-10-05T01:16:12.953Z,10.48
2018-10-05T01:18:40.141Z,10.60
2018-10-05T01:21:07.340Z,10.59
2018-10-05T01:23:34.468Z,10.57
2018-10-05T01:26:01.652Z,10.54
2018-10-05T01:28:28.852Z,10.53
2018-10-05T01:30:55.972Z,10.57
2018-10-05T01:33:23.347Z,10.52
2018-10-05T01:35:50.495Z,10.48
2018-10-05T01:38:17.633Z,10.44
2018-10-05T01:40:44.848Z,10.48
2018-10-05T01:43:12.029Z,10.41
2018-10-05T01:45:39.197Z,10.36
2018-10-05T01:48:06.388Z,10.35
2018-10-05T01:50:33.536Z,10.36
2018-10-05T01:53:00.667Z,10.32
2018-10-05T01:55:27.920Z,10.34
2018-10-05T01:57:55.050Z,10.30
2018-10-05T02:00:22.192Z,10.18
2018-10-05T02:02:49.373Z,10.13
2018-10-05T02:05:16.493Z,10.04
2018-10-05T02:07:43.615Z,9.97
2018-10-05T02:10:10.824Z,9.89
2018-10-05T02:12:37.940Z,9.82
2018-10-05T02:15:05.241Z,9.77
2018-10-05T02:17:32.400Z,9.76
2018-10-05T02:19:59.515Z,9.77
2018-10-05T02:22:26.695Z,9.93
2018-10-05T02:24:53.860Z,10.01
2018-10-05T02:27:21.054Z,10.03
2018-10-05T02:29:48.150Z,10.15
2018-10-05T02:32:15.337Z,10.28
2018-10-05T02:34:42.477Z,10.33
2018-10-05T02:37:09.635Z,10.39
2018-10-05T02:39:36.820Z,10.46
2018-10-05T02:42:03.970Z,10.58
2018-10-05T02:44:31.157Z,10.58
2018-10-05T02:46:58.340Z,10.73
2018-10-05T02:49:25.456Z,10.75
2018-10-05T02:51:52.589Z,10.79
2018-10-05T02:54:19.808Z,10.73
2018-10-05T02:56:46.978Z,10.76
2018-10-05T02:59:14.129Z,10.80
2018-10-05T03:01:52.758Z,10.83
2018-10-05T03:04:19.867Z,10.84
2018-10-05T03:06:47.003Z,10.85
2018-10-05T03:09:14.188Z,10.85
2018-10-05T03:11:41.320Z,10.87
2018-10-05T03:14:08.457Z,10.88
2018-10-05T03:16:35.641Z,10.93
2018-10-05T03:19:02.748Z,10.96
2018-10-05T03:21:29.890Z,11.02
2018-10-05T03:23:57.125Z,11.04
2018-10-05T03:26:24.260Z,11.11
2018-10-05T03:28:51.376Z,11.14
2018-10-05T03:31:18.569Z,11.14
2018-10-05T03:33:45.760Z,11.12
2018-10-05T03:36:12.892Z,11.12
2018-10-05T03:38:40.072Z,11.15
2018-10-05T03:41:07.207Z,11.17
2018-10-05T03:43:34.345Z,11.14
2018-10-05T03:46:01.520Z,11.19
2018-10-05T03:48:28.655Z,11.19
2018-10-05T03:50:55.784Z,11.20
2018-10-05T03:53:22.956Z,11.21
2018-10-05T03:55:50.081Z,11.23
2018-10-05T03:58:17.213Z,11.24
2018-10-05T04:00:44.413Z,11.23
2018-10-05T04:03:11.545Z,11.23
2018-10-05T04:05:38.677Z,11.22
2018-10-05T04:08:05.883Z,11.25
2018-10-05T04:10:33.013Z,11.27
2018-10-05T04:13:00.174Z,11.23
2018-10-05T04:15:27.399Z,11.34
2018-10-05T04:17:54.921Z,11.32
2018-10-05T04:20:22.060Z,11.35
2018-10-05T04:22:49.266Z,11.39
2018-10-05T04:25:16.444Z,11.38
2018-10-05T04:27:43.565Z,11.54
2018-10-05T04:30:10.785Z,11.62
2018-10-05T04:32:44.584Z,11.62
2018-10-05T04:35:11.765Z,11.58
2018-10-05T04:37:38.889Z,11.55
2018-10-05T04:40:06.053Z,11.50
2018-10-05T04:42:33.238Z,11.53
2018-10-05T04:45:00.462Z,11.54
2018-10-05T04:47:27.592Z,11.51
2018-10-05T04:49:54.789Z,11.54
2018-10-05T04:52:23.127Z,11.58
2018-10-05T04:54:50.285Z,11.67
2018-10-05T04:57:17.441Z,11.52
2018-10-05T04:59:44.570Z,11.46
2018-10-05T05:02:11.721Z,11.48
2018-10-05T05:04:38.939Z,11.38
2018-10-05T05:07:06.501Z,11.40
2018-10-05T05:09:34.703Z,11.33
2018-10-05T05:12:02.057Z,11.38
2018-10-05T05:14:29.134Z,11.34
2018-10-05T05:16:56.265Z,11.30
2018-10-05T05:19:23.527Z,11.24
2018-10-05T05:21:50.665Z,11.20
2018-10-05T05:24:17.796Z,11.20
2018-10-05T05:26:45.101Z,11.17
2018-10-05T05:29:12.216Z,11.15
2018-10-05T05:31:40.258Z,11.22
2018-10-05T05:34:07.564Z,11.19
2018-10-05T05:36:34.619Z,11.18
2018-10-05T05:39:01.720Z,11.19
2018-10-05T05:41:28.944Z,11.26
2018-10-05T05:43:56.069Z,11.25
2018-10-05T05:46:23.190Z,11.23
2018-10-05T05:48:50.320Z,11.25
2018-10-05T05:51:17.465Z,11.26
2018-10-05T05:53:45.121Z,11.32
2018-10-05T05:56:12.274Z,11.37
2018-10-05T05:58:39.399Z,11.43
2018-10-05T06:01:07.506Z,11.40
2018-10-05T06:03:35.445Z,11.43
2018-10-05T06:06:02.665Z,11.49
2018-10-05T06:08:29.809Z,11.50
2018-10-05T06:10:57.392Z,11.55
2018-10-05T06:13:28.097Z,11.55
2018-10-05T06:15:55.989Z,11.57
2018-10-05T06:18:23.124Z,11.53
2018-10-05T06:20:50.240Z,11.55
2018-10-05T06:23:17.335Z,11.60
2018-10-05T06:25:44.497Z,11.60
2018-10-05T06:28:11.641Z,11.59
2018-10-05T06:30:38.866Z,11.62
2018-10-05T06:33:06.093Z,11.61
2018-10-05T06:35:33.194Z,11.64
2018-10-05T06:38:00.332Z,11.78
2018-10-05T06:40:27.456Z,11.97
2018-10-05T06:42:54.564Z,12.09
2018-10-05T06:45:21.668Z,12.11
2018-10-05T06:47:48.870Z,12.13
2018-10-05T06:50:16.041Z,12.29
2018-10-05T06:52:43.141Z,12.43
2018-10-05T06:55:10.287Z,12.53
2018-10-05T06:57:37.411Z,12.52
2018-10-05T07:00:04.896Z,12.71
2018-10-05T07:02:32.040Z,12.75
2018-10-05T07:04:59.135Z,12.80
2018-10-05T07:07:26.251Z,12.86
2018-10-05T07:09:53.409Z,12.92
2018-10-05T07:12:20.512Z,13.03
2018-10-05T07:14:47.617Z,13.05
2018-10-05T07:17:14.784Z,13.28
2018-10-05T07:19:41.888Z,13.27
2018-10-05T07:22:08.989Z,13.51
2018-10-05T07:24:36.149Z,13.44
2018-10-05T07:27:03.284Z,13.77
2018-10-05T07:29:30.440Z,13.93
2018-10-05T07:31:57.605Z,13.95
2018-10-05T07:34:24.804Z,14.24
2018-10-05T07:36:51.980Z,14.45
2018-10-05T07:39:19.132Z,14.52
2018-10-05T07:41:46.232Z,14.85
2018-10-05T07:44:13.387Z,15.11
2018-10-05T07:46:40.617Z,15.32
2018-10-05T07:49:07.723Z,15.47
2018-10-05T07:51:34.914Z,15.65
2018-10-05T07:54:02.072Z,15.94
2018-10-05T07:56:29.239Z,16.20
2018-10-05T07:58:56.388Z,16.33
2018-10-05T08:01:23.577Z,16.66
2018-10-05T08:03:50.677Z,16.95
2018-10-05T08:06:17.773Z,16.70
2018-10-05T08:08:44.920Z,16.49
2018-10-05T08:11:12.036Z,16.81
2018-10-05T08:13:39.154Z,16.66
2018-10-05T08:16:06.444Z,17.05
2018-10-05T08:18:33.539Z,17.27
2018-10-05T08:21:00.644Z,17.06
2018-10-05T08:23:27.928Z,17.57
2018-10-05T08:25:55.245Z,17.63
2018-10-05T08:28:22.370Z,17.46
2018-10-05T08:30:49.573Z,17.89
2018-10-05T08:33:16.685Z,17.99
2018-10-05T08:35:45.120Z,18.03
2018-10-05T08:38:12.327Z,17.66
2018-10-05T08:40:39.631Z,17.81
2018-10-05T08:43:06.753Z,17.52
2018-10-05T08:45:33.938Z,17.98
2018-10-05T08:48:01.013Z,17.76
2018-10-05T08:50:28.166Z,17.91
2018-10-05T08:52:55.324Z,17.89
2018-10-05T08:55:22.430Z,17.61
2018-10-05T08:57:49.532Z,17.46
2018-10-05T09:00:16.736Z,17.60
2018-10-05T09:02:43.825Z,17.46
2018-10-05T09:05:10.915Z,17.92
2018-10-05T09:07:39.182Z,17.52
2018-10-05T09:10:06.721Z,18.08
2018-10-05T09:12:33.818Z,18.18
2018-10-05T09:15:01.072Z,18.70
2018-10-05T09:17:28.232Z,18.85
2018-10-05T09:19:55.327Z,19.31
2018-10-05T09:22:23.196Z,19.58
2018-10-05T09:24:50.407Z,19.50
2018-10-05T09:27:17.529Z,19.59
2018-10-05T09:29:44.674Z,19.03
2018-10-05T09:32:11.827Z,19.16
2018-10-05T09:34:38.930Z,19.53
2018-10-05T09:37:06.121Z,19.04
2018-10-05T09:39:33.255Z,19.25
2018-10-05T09:42:00.373Z,19.62
2018-10-05T09:44:27.550Z,19.69
2018-10-05T09:46:54.656Z,19.84
2018-10-05T09:49:21.776Z,20.07
2018-10-05T09:51:48.986Z,20.78
2018-10-05T09:54:16.089Z,20.55
2018-10-05T09:56:43.205Z,20.49
2018-10-05T09:59:10.360Z,21.23
2018-10-05T10:01:43.354Z,21.02
2018-10-05T10:04:10.487Z,20.65
2018-10-05T10:06:37.647Z,20.56
2018-10-05T10:09:06.889Z,20.81
2018-10-05T10:11:34.038Z,21.22
2018-10-05T10:14:01.360Z,21.68
2018-10-05T10:16:28.469Z,21.02
2018-10-05T10:18:55.644Z,21.56
2018-10-05T10:21:22.735Z,21.57
2018-10-05T10:23:49.839Z,21.42
2018-10-05T10:26:17.046Z,22.13
2018-10-05T10:28:44.292Z,21.93
2018-10-05T10:31:11.296Z,22.26
2018-10-05T10:33:38.526Z,22.06
2018-10-05T10:36:05.834Z,22.20
2018-10-05T10:38:32.951Z,21.10
2018-10-05T10:41:00.165Z,21.55
2018-10-05T10:43:27.324Z,21.74
2018-10-05T10:45:54.453Z,21.65
2018-10-05T10:48:21.727Z,21.20
2018-10-05T10:50:48.821Z,21.70
2018-10-05T10:53:15.926Z,21.19
2018-10-05T10:55:43.098Z,21.22
2018-10-05T10:58:10.247Z,21.46
2018-10-05T11:00:37.456Z,21.41
2018-10-05T11:03:04.629Z,21.47
2018-10-05T11:05:31.881Z,20.73
2018-10-05T11:07:59.070Z,20.63
2018-10-05T11:10:26.244Z,20.88
2018-10-05T11:12:53.385Z,21.32
2018-10-05T11:15:20.501Z,21.75
2018-10-05T11:17:47.944Z,22.14
2018-10-05T11:20:15.089Z,22.19
2018-10-05T11:22:42.220Z,22.53
2018-10-05T11:25:09.422Z,22.90
2018-10-05T11:27:37.116Z,22.76
2018-10-05T11:30:04.851Z,23.06
2018-10-05T11:32:32.029Z,22.67
2018-10-05T11:34:59.382Z,22.88
2018-10-05T11:37:26.485Z,22.64
2018-10-05T11:39:53.772Z,22.62
2018-10-05T11:42:20.943Z,23.03
2018-10-05T11:44:48.129Z,23.24
2018-10-05T11:47:15.409Z,23.65
2018-10-05T11:49:42.581Z,23.11
2018-10-05T11:52:09.771Z,22.68
2018-10-05T11:54:36.985Z,22.49
2018-10-05T11:57:04.144Z,21.79
2018-10-05T11:59:31.302Z,21.45
2018-10-05T12:01:58.544Z,22.05
2018-10-05T12:04:25.681Z,21.94
2018-10-05T12:06:52.836Z,21.64
2018-10-05T12:09:20.036Z,21.73
2018-10-05T12:11:47.287Z,21.77
2018-10-05T12:14:14.508Z,21.57
2018-10-05T12:16:41.708Z,21.31
2018-10-05T12:19:08.868Z,21.23
2018-10-05T12:21:36.116Z,21.23
2018-10-05T12:24:03.305Z,20.87
2018-10-05T12:26:30.652Z,20.85
2018-10-05T12:28:57.777Z,20.56
2018-10-05T12:31:25.144Z,20.57
2018-10-05T12:33:52.320Z,20.53
2018-10-05T12:36:19.626Z,20.44
2018-10-05T12:38:47.042Z,20.34
2018-10-05T12:41:14.257Z,20.35
2018-10-05T12:43:41.678Z,20.27
2018-10-05T12:46:09.189Z,20.24
2018-10-05T12:48:36.353Z,20.19
2018-10-05T12:51:03.481Z,20.25
2018-10-05T12:53:30.837Z,20.14
2018-10-05T12:55:57.973Z,20.04
2018-10-05T12:58:25.096Z,19.94
2018-10-05T13:00:52.276Z,20.03
2018-10-05T13:03:19.421Z,19.95
2018-10-05T13:05:46.546Z,19.98
2018-10-05T13:08:13.709Z,20.06
2018-10-05T13:10:40.873Z,19.96
2018-10-05T13:13:08.180Z,19.81
2018-10-05T13:15:35.725Z,19.79
2018-10-05T13:18:02.885Z,19.74
2018-10-05T13:20:30.017Z,19.65
2018-10-05T13:22:57.665Z,19.70
2018-10-05T13:25:25.041Z,19.62
2018-10-05T13:27:52.176Z,19.55
2018-10-05T13:30:19.340Z,19.53
2018-10-05T13:32:46.465Z,19.50
2018-10-05T13:35:13.679Z,19.62
2018-10-05T13:37:40.899Z,19.55
2018-10-05T13:40:08.051Z,19.50
2018-10-05T13:42:35.192Z,19.47
2018-10-05T13:45:02.374Z,19.43
2018-10-05T13:47:29.543Z,19.40
2018-10-05T13:49:56.789Z,19.40
2018-10-05T13:52:23.932Z,19.38
2018-10-05T13:54:51.059Z,19.26
2018-10-05T13:57:18.174Z,19.20
2018-10-05T13:59:45.399Z,19.21
2018-10-05T14:02:12.611Z,19.26
2018-10-05T14:04:39.842Z,19.33
2018-10-05T14:07:07.217Z,19.32
2018-10-05T14:09:34.349Z,19.26
2018-10-05T14:12:01.560Z,19.25
2018-10-05T14:14:28.818Z,19.18
2018-10-05T14:16:56.276Z,19.16
2018-10-05T14:19:23.419Z,19.15
2018-10-05T14:21:50.653Z,19.30
2018-10-05T14:24:17.785Z,19.26
2018-10-05T14:26:44.945Z,19.31
2018-10-05T14:29:12.181Z,19.26
2018-10-05T14:31:39.429Z,19.16
2018-10-05T14:34:06.586Z,19.10
2018-10-05T14:36:33.805Z,19.11
2018-10-05T14:39:01.142Z,19.08
2018-10-05T14:41:28.348Z,19.01
2018-10-05T14:43:55.534Z,18.96
2018-10-05T14:46:22.677Z,18.86
2018-10-05T14:48:49.851Z,18.97
2018-10-05T14:51:17.010Z,18.85
2018-10-05T14:53:44.229Z,18.87
2018-10-05T14:56:11.352Z,18.85
2018-10-05T14:58:38.583Z,18.82
2018-10-05T15:01:05.737Z,18.88
2018-10-05T15:03:32.880Z,18.87
2018-10-05T15:06:00.081Z,18.70
2018-10-05T15:08:27.209Z,18.62
2018-10-05T15:10:54.361Z,18.53
2018-10-05T15:13:21.649Z,18.47
2018-10-05T15:15:48.753Z,18.36
2018-10-05T15:18:15.914Z,18.38
2018-10-05T15:20:43.146Z,18.42
2018-10-05T15:23:10.353Z,18.34
2018-10-05T15:25:37.476Z,18.26
2018-10-05T15:28:04.700Z,18.28
2018-10-05T15:30:31.828Z,18.17
2018-10-05T15:32:59.028Z,18.04
2018-10-05T15:35:26.284Z,17.96
2018-10-05T15:37:53.401Z,17.93
2018-10-05T15:40:20.551Z,17.89
2018-10-05T15:42:47.736Z,17.84
2018-10-05T15:45:14.902Z,17.72
2018-10-05T15:47:42.060Z,17.64
2018-10-05T15:50:09.226Z,17.63
2018-10-05T15:52:36.317Z,17.66
2018-10-05T15:55:03.423Z,17.65
2018-10-05T15:57:30.581Z,17.65
2018-10-05T15:59:57.680Z,17.62
2018-10-05T16:02:24.808Z,17.47
2018-10-05T16:04:52.092Z,17.40
2018-10-05T16:07:19.228Z,17.28
2018-10-05T16:09:46.340Z,17.22
2018-10-05T16:12:13.559Z,17.16
2018-10-05T16:14:40.707Z,17.05
2018-10-05T16:17:07.841Z,17.01
2018-10-05T16:19:35.033Z,16.88
2018-10-05T16:22:02.178Z,16.81
2018-10-05T16:24:32.268Z,16.69
2018-10-05T16:26:59.455Z,16.50
2018-10-05T16:29:26.614Z,16.35
2018-10-05T16:31:53.725Z,16.12
2018-10-05T16:34:21.045Z,15.90
2018-10-05T16:36:48.187Z,15.69
2018-10-05T16:39:15.347Z,15.50
2018-10-05T16:41:42.636Z,15.33
2018-10-05T16:44:09.828Z,15.16
2018-10-05T16:46:37.657Z,15.02
2018-10-05T16:49:05.393Z,14.86
2018-10-05T16:51:32.488Z,14.70
2018-10-05T16:53:59.719Z,14.52
2018-10-05T16:56:26.872Z,14.37
2018-10-05T16:58:54.005Z,14.23
2018-10-05T17:01:21.114Z,14.11
2018-10-05T17:03:48.412Z,14.00
2018-10-05T17:06:15.598Z,13.90
2018-10-05T17:08:46.072Z,13.79
2018-10-05T17:11:13.327Z,13.66
2018-10-05T17:13:40.486Z,13.55
2018-10-05T17:16:07.676Z,13.45
2018-10-05T17:18:34.842Z,13.34
2018-10-05T17:21:01.945Z,13.26
2018-10-05T17:23:29.073Z,13.17
2018-10-05T17:25:56.291Z,13.07
2018-10-05T17:28:23.409Z,12.98
2018-10-05T17:30:50.537Z,12.90
2018-10-05T17:33:17.711Z,12.81
2018-10-05T17:35:44.833Z,12.73
2018-10-05T17:38:11.948Z,12.66
2018-10-05T17:40:39.178Z,12.58
2018-10-05T17:43:06.346Z,12.50
2018-10-05T17:45:33.472Z,12.43
2018-10-05T17:48:00.624Z,12.35
2018-10-05T17:50:27.827Z,12.29
2018-10-05T17:52:55.057Z,12.25
2018-10-05T17:55:22.416Z,12.17
2018-10-05T17:57:49.477Z,12.14
2018-10-05T18:00:16.603Z,12.09
2018-10-05T18:02:43.956Z,12.12
2018-10-05T18:05:11.124Z,12.05
2018-10-05T18:07:38.260Z,12.06
2018-10-05T18:10:05.656Z,12.03
2018-10-05T18:12:32.737Z,11.99
2018-10-05T18:14:59.841Z,12.04
2018-10-05T18:17:27.185Z,12.04
2018-10-05T18:19:54.396Z,12.03
2018-10-05T18:22:21.492Z,11.98
2018-10-05T18:24:48.828Z,11.98
2018-10-05T18:27:15.976Z,11.95
2018-10-05T18:29:43.177Z,11.92
2018-10-05T18:32:10.416Z,11.86
2018-10-05T18:34:37.536Z,11.84
2018-10-05T18:37:04.629Z,11.86
2018-10-05T18:39:31.780Z,11.87
2018-10-05T18:41:58.918Z,11.87
2018-10-05T18:44:26.056Z,11.91
2018-10-05T18:46:53.250Z,11.90
2018-10-05T18:49:20.354Z,11.86
2018-10-05T18:51:47.460Z,11.82
2018-10-05T18:54:14.825Z,11.77
2018-10-05T18:56:53.565Z,11.68
2018-10-05T18:59:20.708Z,11.60
2018-10-05T19:01:47.821Z,11.54
2018-10-05T19:04:14.908Z,11.46
2018-10-05T19:06:42.098Z,11.39
2018-10-05T19:09:09.220Z,11.38
2018-10-05T19:11:36.984Z,11.30
2018-10-05T19:14:04.219Z,11.28
2018-10-05T19:16:31.340Z,11.25
2018-10-05T19:18:58.451Z,11.21
2018-10-05T19:21:25.580Z,11.18
2018-10-05T19:23:52.676Z,11.16
2018-10-05T19:26:19.946Z,11.15
2018-10-05T19:28:48.315Z,11.22
2018-10-05T19:31:15.424Z,11.16
2018-10-05T19:33:42.544Z,11.15
2018-10-05T19:36:09.713Z,11.33
2018-10-05T19:38:36.906Z,11.64
2018-10-05T19:41:04.004Z,11.95
2018-10-05T19:43:31.157Z,12.16
2018-10-05T19:45:58.300Z,12.24
2018-10-05T19:48:25.535Z,12.28
2018-10-05T19:50:52.744Z,12.31
2018-10-05T19:53:19.897Z,12.24
2018-10-05T19:55:47.043Z,12.27
2018-10-05T19:58:14.204Z,12.25
2018-10-05T20:00:41.328Z,12.18
2018-10-05T20:03:08.432Z,12.10
2018-10-05T20:05:35.573Z,12.01
2018-10-05T20:08:02.697Z,12.01
2018-10-05T20:10:29.848Z,11.97
2018-10-05T20:12:57.088Z,11.97
2018-10-05T20:15:24.255Z,11.95
2018-10-05T20:17:51.456Z,11.89
2018-10-05T20:20:18.467Z,11.87
2018-10-05T20:22:45.577Z,11.80
2018-10-05T20:25:12.689Z,11.74
2018-10-05T20:27:39.840Z,11.69
2018-10-05T20:30:07.517Z,11.63
2018-10-05T20:32:34.637Z,11.61
2018-10-05T20:35:02.565Z,11.59
2018-10-05T20:37:29.812Z,11.60
2018-10-05T20:39:56.777Z,11.64
2018-10-05T20:42:23.956Z,11.60
2018-10-05T20:44:51.203Z,11.54
2018-10-05T20:47:18.375Z,11.47
2018-10-05T20:49:45.587Z,11.44
2018-10-05T20:52:12.688Z,11.29
2018-10-05T20:54:39.781Z,11.16
2018-10-05T20:57:13.704Z,11.13
2018-10-05T20:59:40.799Z,10.94
2018-10-05T21:02:07.892Z,10.83
2018-10-05T21:04:35.124Z,10.74
2018-10-05T21:07:02.222Z,10.67
2018-10-05T21:09:29.316Z,10.53
2018-10-05T21:11:56.441Z,10.40
2018-10-05T21:14:23.636Z,10.28
2018-10-05T21:16:50.733Z,10.18
2018-10-05T21:19:17.865Z,10.13
2018-10-05T21:21:44.969Z,10.07
2018-10-05T21:24:12.107Z,10.05
2018-10-05T21:26:39.245Z,9.95
2018-10-05T21:29:07.081Z,9.85
2018-10-05T21:31:34.196Z,9.72
2018-10-05T21:34:01.341Z,9.64
2018-10-05T21:36:28.441Z,9.58
2018-10-05T21:38:55.516Z,9.51
2018-10-05T21:41:22.660Z,9.46
2018-10-05T21:43:49.840Z,9.45
2018-10-05T21:46:16.952Z,9.34
2018-10-05T21:48:44.132Z,9.27
2018-10-05T21:51:11.360Z,9.29
2018-10-05T21:53:38.465Z,9.18
2018-10-05T21:56:05.809Z,9.17
2018-10-05T21:58:32.899Z,9.07
2018-10-05T22:00:59.987Z,9.16
2018-10-05T22:03:29.728Z,9.17
2018-10-05T22:05:56.835Z,9.12
2018-10-05T22:08:23.923Z,9.17
2018-10-05T22:10:51.128Z,9.21
2018-10-05T22:13:18.208Z,9.19
2018-10-05T22:15:45.332Z,9.11
2018-10-05T22:18:12.497Z,9.07
2018-10-05T22:20:39.589Z,8.99
2018-10-05T22:23:06.701Z,8.96
2018-10-05T22:25:33.852Z,8.90
2018-10-05T22:28:00.945Z,8.87
2018-10-05T22:30:28.091Z,8.82
2018-10-05T22:32:55.312Z,8.80
2018-10-05T22:35:22.416Z,8.78
2018-10-05T22:37:49.511Z,8.83
2018-10-05T22:40:16.725Z,8.87
2018-10-05T22:42:43.816Z,8.98
2018-10-05T22:45:10.907Z,9.07
2018-10-05T22:47:38.065Z,9.10
2018-10-05T22:50:05.265Z,9.15
2018-10-05T22:52:32.368Z,9.22
2018-10-05T22:54:59.525Z,9.25
2018-10-05T22:57:26.615Z,9.25
2018-10-05T22:59:53.954Z,9.25
2018-10-05T23:02:22.101Z,9.28
2018-10-05T23:04:49.960Z,9.32
2018-10-05T23:07:17.395Z,9.44
2018-10-05T23:09:45.135Z,9.52
2018-10-05T23:12:12.429Z,9.54
2018-10-05T23:14:40.500Z,9.61
2018-10-05T23:17:07.777Z,9.60
2018-10-05T23:19:35.137Z,9.64
2018-10-05T23:22:02.617Z,9.68
2018-10-05T23:24:30.104Z,9.79
2018-10-05T23:26:57.312Z,9.90
2018-10-05T23:29:25.491Z,9.95
2018-10-05T23:31:53.538Z,9.92
2018-10-05T23:34:21.104Z,9.91
2018-10-05T23:36:48.929Z,9.94
2018-10-05T23:39:16.638Z,9.97
2018-10-05T23:41:44.267Z,10.09
2018-10-05T23:44:12.433Z,10.09
2018-10-05T23:46:39.700Z,10.15
2018-10-05T23:49:07.485Z,10.18
2018-10-05T23:51:34.652Z,10.16
2018-10-05T23:54:01.783Z,10.17
2018-10-05T23:56:28.891Z,10.14
2018-10-05T23:58:56.134Z,10.08
